Terminal Aerodrome Forecast
Issued by NWS Jacksonville, FL

Home | Current Version | Previous Version | Text Only | Print | Product List | Glossary On
Versions: 1 2 3 4 5 6 7 8 9 10 11 12 13 14 15 16 17
000
FTUS42 KJAX 150825 AAA
TAFGNV
TAF AMD
KGNV 150825Z 1508/1606 23003KT P6SM BKN035 BKN250
     FM151600 26007KT P6SM SCT030 BKN100
     FM160000 VRB03KT P6SM BKN250=

USA.gov is the U.S. government's official web portal to all federal, state and local government web resources and services.